createdAt,value
2022-10-19T00:02:03.369Z,34.23
2022-10-19T00:04:30.979Z,35.57
2022-10-19T00:06:58.529Z,35.53
2022-10-19T00:09:27.434Z,35.83
2022-10-19T00:11:54.961Z,33.93
2022-10-19T00:14:24.658Z,33.10
2022-10-19T00:16:54.458Z,34.80
2022-10-19T00:19:26.403Z,36.90
2022-10-19T00:21:54.310Z,34.13
2022-10-19T00:24:22.370Z,34.90
2022-10-19T00:26:51.262Z,34.60
2022-10-19T00:29:18.889Z,34.60
2022-10-19T00:31:46.414Z,33.80
2022-10-19T00:34:13.938Z,37.23
2022-10-19T00:36:42.090Z,35.50
2022-10-19T00:39:12.639Z,36.50
2022-10-19T00:41:40.687Z,36.30
2022-10-19T00:44:41.706Z,34.47
2022-10-19T00:47:10.778Z,36.30
2022-10-19T00:49:43.334Z,34.97
2022-10-19T00:52:15.425Z,35.73
2022-10-19T00:54:44.802Z,35.10
2022-10-19T00:57:13.238Z,36.07
2022-10-19T00:59:42.358Z,36.07
2022-10-19T01:02:11.273Z,35.00
2022-10-19T01:04:41.366Z,35.50
2022-10-19T01:07:09.828Z,37.47
2022-10-19T01:09:37.418Z,34.67
2022-10-19T01:12:11.877Z,35.03
2022-10-19T01:14:55.654Z,36.20
2022-10-19T01:17:36.670Z,35.63
2022-10-19T01:20:41.246Z,36.03
2022-10-19T01:23:34.354Z,36.63
2022-10-19T01:26:15.072Z,36.23
2022-10-19T01:28:54.805Z,37.67
2022-10-19T01:31:28.618Z,35.20
2022-10-19T01:34:04.289Z,34.70
2022-10-19T01:36:40.092Z,35.90
2022-10-19T01:39:12.469Z,35.33
2022-10-19T01:41:48.793Z,35.97
2022-10-19T01:44:22.598Z,36.37
2022-10-19T01:46:56.830Z,35.67
2022-10-19T01:49:30.498Z,36.93
2022-10-19T01:52:02.297Z,38.27
2022-10-19T01:54:35.158Z,35.57
2022-10-19T01:57:06.973Z,37.77
2022-10-19T01:59:35.502Z,34.33
2022-10-19T02:02:05.801Z,37.27
2022-10-19T02:04:35.162Z,36.40
2022-10-19T02:07:04.582Z,36.43
2022-10-19T02:09:32.239Z,37.47
2022-10-19T02:12:04.549Z,35.40
2022-10-19T02:14:36.095Z,34.23
2022-10-19T02:17:09.079Z,34.07
2022-10-19T02:19:37.069Z,34.70
2022-10-19T02:22:05.279Z,34.27
2022-10-19T02:24:33.033Z,33.73
2022-10-19T02:27:01.725Z,34.47
2022-10-19T02:29:29.527Z,35.10
2022-10-19T02:31:57.150Z,35.17
2022-10-19T02:34:26.342Z,34.00
2022-10-19T02:36:54.401Z,36.07
2022-10-19T02:39:22.400Z,36.80
2022-10-19T02:41:54.019Z,35.47
2022-10-19T02:44:25.545Z,35.80
2022-10-19T02:46:59.504Z,35.03
2022-10-19T02:49:29.971Z,34.77
2022-10-19T02:52:00.470Z,35.50
2022-10-19T02:54:29.048Z,34.13
2022-10-19T02:56:57.268Z,34.60
2022-10-19T02:59:25.959Z,35.10
2022-10-19T03:01:53.669Z,34.90
2022-10-19T03:04:21.218Z,37.30
2022-10-19T03:06:50.101Z,36.10
2022-10-19T03:09:17.769Z,35.03
2022-10-19T03:11:45.357Z,35.20
2022-10-19T03:14:12.882Z,36.27
2022-10-19T03:16:40.834Z,34.63
2022-10-19T03:19:08.529Z,35.40
2022-10-19T03:21:36.303Z,35.47
2022-10-19T03:24:05.681Z,36.07
2022-10-19T03:26:33.234Z,33.63
2022-10-19T03:29:01.126Z,34.93
2022-10-19T03:31:28.673Z,34.87
2022-10-19T03:33:56.247Z,34.80
2022-10-19T03:36:25.609Z,35.30
2022-10-19T03:38:53.676Z,33.80
2022-10-19T03:41:24.294Z,36.80
2022-10-19T03:43:52.233Z,35.03
2022-10-19T03:46:20.363Z,36.13
2022-10-19T03:48:48.227Z,35.07
2022-10-19T03:51:18.334Z,36.93
2022-10-19T03:53:46.476Z,35.20
2022-10-19T03:56:16.352Z,34.60
2022-10-19T03:58:47.148Z,37.03
2022-10-19T04:01:17.228Z,35.40
2022-10-19T04:03:45.269Z,35.03
2022-10-19T04:06:18.279Z,35.90
2022-10-19T04:08:49.702Z,34.97
2022-10-19T04:11:19.113Z,35.97
2022-10-19T04:13:50.460Z,37.40
2022-10-19T04:16:18.895Z,35.17
2022-10-19T04:18:46.608Z,34.30
2022-10-19T04:21:22.767Z,34.20
2022-10-19T04:23:51.600Z,35.97
2022-10-19T04:26:19.585Z,37.27
2022-10-19T04:28:47.408Z,35.90
2022-10-19T04:31:16.361Z,37.10
2022-10-19T04:33:44.172Z,35.07
2022-10-19T04:36:13.129Z,36.90
2022-10-19T04:38:40.769Z,33.87
2022-10-19T04:41:10.494Z,35.57
2022-10-19T04:43:38.718Z,36.67
2022-10-19T04:46:08.254Z,35.43
2022-10-19T04:48:38.915Z,35.93
2022-10-19T04:51:07.479Z,43.27
2022-10-19T04:53:35.945Z,34.23
2022-10-19T04:56:06.823Z,35.83
2022-10-19T04:58:34.449Z,36.60
2022-10-19T05:01:08.759Z,35.27
2022-10-19T05:03:38.017Z,35.63
2022-10-19T05:06:06.027Z,34.83
2022-10-19T05:08:33.693Z,36.90
2022-10-19T05:11:06.377Z,39.40
2022-10-19T05:13:34.613Z,36.90
2022-10-19T05:16:04.331Z,35.57
2022-10-19T05:18:31.906Z,36.00
2022-10-19T05:21:06.167Z,37.47
2022-10-19T05:23:33.967Z,37.27
2022-10-19T05:26:03.367Z,37.57
2022-10-19T05:28:30.980Z,37.50
2022-10-19T05:31:06.303Z,37.60
2022-10-19T05:33:33.943Z,36.20
2022-10-19T05:36:10.154Z,36.73
2022-10-19T05:38:39.197Z,38.30
2022-10-19T05:41:06.914Z,38.47
2022-10-19T05:43:34.560Z,36.40
2022-10-19T05:46:05.366Z,37.97
2022-10-19T05:48:33.959Z,38.53
2022-10-19T05:51:02.174Z,37.23
2022-10-19T05:53:30.378Z,35.40
2022-10-19T05:55:59.322Z,34.97
2022-10-19T05:58:27.289Z,35.33
2022-10-19T06:00:56.521Z,34.50
2022-10-19T06:03:24.781Z,37.07
2022-10-19T06:05:53.102Z,34.50
2022-10-19T06:08:22.062Z,34.60
2022-10-19T06:10:50.880Z,32.50
2022-10-19T06:13:20.890Z,35.37
2022-10-19T06:15:52.047Z,32.97
2022-10-19T06:18:19.594Z,34.50
2022-10-19T06:20:47.253Z,34.10
2022-10-19T06:23:14.801Z,32.90
2022-10-19T06:25:42.597Z,32.97
2022-10-19T06:28:10.389Z,34.60
2022-10-19T06:30:41.039Z,33.33
2022-10-19T06:33:08.831Z,34.20
2022-10-19T06:35:36.531Z,33.60
2022-10-19T06:38:04.078Z,32.47
2022-10-19T06:40:31.820Z,33.07
2022-10-19T06:42:59.581Z,33.47
2022-10-19T06:45:27.258Z,32.30
2022-10-19T06:47:56.125Z,32.70
2022-10-19T06:50:23.685Z,34.73
2022-10-19T06:52:51.343Z,33.03
2022-10-19T06:55:18.898Z,33.13
2022-10-19T06:57:46.770Z,34.20
2022-10-19T07:00:15.418Z,33.87
2022-10-19T07:02:43.105Z,33.73
2022-10-19T07:05:12.075Z,32.63
2022-10-19T07:07:39.630Z,34.33
2022-10-19T07:10:07.965Z,36.07
2022-10-19T07:12:35.505Z,34.33
2022-10-19T07:15:03.073Z,36.20
2022-10-19T07:17:30.842Z,35.50
2022-10-19T07:19:58.367Z,36.43
2022-10-19T07:22:28.389Z,36.13
2022-10-19T07:24:56.009Z,35.00
2022-10-19T07:27:23.622Z,34.13
2022-10-19T07:29:51.214Z,36.10
2022-10-19T07:32:18.744Z,34.60
2022-10-19T07:34:46.298Z,36.47
2022-10-19T07:37:13.821Z,35.20
2022-10-19T07:39:42.719Z,35.57
2022-10-19T07:42:10.636Z,36.00
2022-10-19T07:44:38.164Z,36.63
2022-10-19T07:47:06.129Z,37.43
2022-10-19T07:49:33.654Z,37.57
2022-10-19T07:52:01.182Z,37.07
2022-10-19T07:54:28.815Z,34.60
2022-10-19T07:56:57.722Z,37.30
2022-10-19T07:59:25.265Z,36.37
2022-10-19T08:01:54.305Z,37.40
2022-10-19T08:07:10.116Z,34.67
2022-10-19T08:09:52.851Z,36.53
2022-10-19T08:12:21.976Z,34.27
2022-10-19T08:14:49.500Z,35.87
2022-10-19T08:17:17.679Z,37.60
2022-10-19T08:19:45.558Z,35.90
2022-10-19T08:22:13.552Z,37.00
2022-10-19T08:24:41.079Z,38.20
2022-10-19T08:27:08.725Z,38.03
2022-10-19T08:29:37.622Z,39.77
2022-10-19T08:32:05.389Z,37.07
2022-10-19T08:34:33.233Z,35.07
2022-10-19T08:37:10.094Z,35.30
2022-10-19T08:39:47.613Z,36.60
2022-10-19T08:42:19.599Z,38.00
2022-10-19T08:45:04.327Z,35.70
2022-10-19T08:47:46.730Z,36.10
2022-10-19T08:50:21.157Z,35.80
2022-10-19T08:52:54.449Z,34.57
2022-10-19T08:55:31.854Z,34.90
2022-10-19T08:58:07.716Z,35.63
2022-10-19T09:00:43.305Z,33.90
2022-10-19T09:03:32.121Z,36.03
2022-10-19T09:06:20.049Z,34.50
2022-10-19T09:08:48.433Z,34.60
2022-10-19T09:11:19.121Z,34.47
2022-10-19T09:14:05.819Z,34.70
2022-10-19T09:16:35.808Z,34.83
2022-10-19T09:19:04.366Z,36.73
2022-10-19T09:21:47.097Z,35.50
2022-10-19T09:24:27.826Z,35.10
2022-10-19T09:26:57.269Z,35.60
2022-10-19T09:29:30.599Z,33.50
2022-10-19T09:32:02.318Z,33.60
2022-10-19T09:34:34.807Z,31.83
2022-10-19T09:37:02.726Z,31.07
2022-10-19T09:39:31.609Z,30.50
2022-10-19T09:42:00.933Z,30.17
2022-10-19T09:44:28.684Z,30.13
2022-10-19T09:47:05.267Z,30.17
2022-10-19T09:49:41.811Z,29.70
2022-10-19T09:52:25.037Z,29.13
2022-10-19T09:55:01.802Z,32.00
2022-10-19T09:57:30.230Z,30.83
2022-10-19T09:59:57.849Z,29.03
2022-10-19T10:02:32.453Z,29.63
2022-10-19T10:05:07.746Z,28.07
2022-10-19T10:07:38.984Z,28.00
2022-10-19T10:10:24.546Z,28.20
2022-10-19T10:12:54.698Z,27.87
2022-10-19T10:15:25.439Z,27.90
2022-10-19T10:17:56.648Z,27.50
2022-10-19T10:20:28.276Z,25.67
2022-10-19T10:22:59.246Z,25.50
2022-10-19T10:25:30.410Z,25.10
2022-10-19T10:28:01.802Z,24.80
2022-10-19T10:30:35.027Z,24.20
2022-10-19T10:33:13.327Z,23.30
2022-10-19T10:35:53.578Z,22.60
2022-10-19T10:38:26.087Z,20.50
2022-10-19T10:40:57.168Z,20.97
2022-10-19T10:43:40.082Z,18.67
2022-10-19T10:46:14.191Z,18.90
2022-10-19T10:48:48.462Z,17.47
2022-10-19T10:51:22.890Z,15.27
2022-10-19T10:53:50.523Z,13.70
2022-10-19T10:56:28.097Z,12.03
2022-10-19T10:59:01.491Z,12.40
2022-10-19T11:01:32.586Z,11.10
2022-10-19T11:04:08.171Z,10.63
2022-10-19T11:06:44.835Z,10.60
2022-10-19T11:09:19.892Z,10.13
2022-10-19T11:11:50.601Z,9.20
2022-10-19T11:14:31.353Z,8.37
2022-10-19T11:17:03.566Z,8.57
2022-10-19T11:19:36.501Z,8.90
2022-10-19T11:22:16.086Z,7.50
2022-10-19T11:25:02.611Z,7.40
2022-10-19T11:27:44.157Z,7.17
2022-10-19T11:30:14.872Z,6.10
2022-10-19T11:32:54.489Z,7.37
2022-10-19T11:35:45.206Z,6.60
2022-10-19T11:38:30.241Z,6.60
2022-10-19T11:41:23.106Z,6.80
2022-10-19T11:44:07.588Z,5.90
2022-10-19T11:46:45.603Z,5.60
2022-10-19T11:49:25.743Z,5.63
2022-10-19T11:52:02.495Z,5.60
2022-10-19T11:54:44.021Z,5.20
2022-10-19T11:57:17.010Z,6.23
2022-10-19T12:00:03.847Z,6.10
2022-10-19T12:03:11.387Z,5.30
2022-10-19T12:05:49.278Z,4.90
2022-10-19T12:08:32.661Z,5.33
2022-10-19T12:11:09.753Z,5.70
2022-10-19T12:13:41.635Z,5.30
2022-10-19T12:16:11.946Z,5.30
2022-10-19T12:18:44.583Z,5.37
2022-10-19T12:21:20.315Z,4.80
2022-10-19T12:23:49.803Z,4.80
2022-10-19T12:26:19.895Z,4.50
2022-10-19T12:28:49.945Z,3.90
2022-10-19T12:31:19.189Z,4.90
2022-10-19T12:33:54.110Z,4.10
2022-10-19T12:36:32.737Z,3.83
2022-10-19T12:39:12.297Z,3.80
2022-10-19T12:41:46.402Z,4.90
2022-10-19T12:44:39.160Z,3.83
2022-10-19T12:47:12.454Z,3.30
2022-10-19T12:49:49.098Z,3.00
2022-10-19T12:52:36.653Z,5.60
2022-10-19T12:55:27.018Z,3.43
2022-10-19T12:58:01.131Z,3.10
2022-10-19T13:00:32.573Z,2.97
2022-10-19T13:03:04.426Z,3.37
2022-10-19T13:05:33.870Z,3.80
2022-10-19T13:08:03.182Z,3.60
2022-10-19T13:10:33.098Z,3.30
2022-10-19T13:13:01.097Z,3.07
2022-10-19T13:15:52.329Z,3.03
2022-10-19T13:19:02.270Z,3.80
2022-10-19T13:21:54.147Z,3.57
2022-10-19T13:24:31.651Z,3.00
2022-10-19T13:27:39.475Z,2.83
2022-10-19T13:30:47.406Z,5.13
2022-10-19T13:33:45.216Z,3.00
2022-10-19T13:36:13.862Z,3.20
2022-10-19T13:38:42.845Z,2.90
2022-10-19T13:41:14.094Z,3.40
2022-10-19T13:43:52.467Z,4.03
2022-10-19T13:46:23.994Z,3.07
2022-10-19T13:49:29.062Z,3.20
2022-10-19T13:52:13.746Z,3.90
2022-10-19T13:54:59.218Z,3.20
2022-10-19T13:57:43.858Z,2.50
2022-10-19T14:00:19.682Z,2.70
2022-10-19T14:03:05.527Z,3.10
2022-10-19T14:05:52.664Z,2.47
2022-10-19T14:08:46.897Z,2.80
2022-10-19T14:11:16.558Z,2.80
2022-10-19T14:13:44.654Z,3.30
2022-10-19T14:16:20.757Z,3.00
2022-10-19T14:18:57.095Z,2.70
2022-10-19T14:21:36.832Z,2.67
2022-10-19T14:24:20.882Z,2.73
2022-10-19T14:26:48.554Z,3.27
2022-10-19T14:29:16.086Z,2.50
2022-10-19T14:31:43.658Z,2.77
2022-10-19T14:34:14.890Z,3.13
2022-10-19T14:36:47.210Z,2.70
2022-10-19T14:39:28.298Z,2.80
2022-10-19T14:41:57.187Z,2.77
2022-10-19T14:44:37.270Z,2.70
2022-10-19T14:47:17.194Z,2.40
2022-10-19T14:49:46.691Z,2.90
2022-10-19T14:52:20.272Z,2.53
2022-10-19T14:54:50.311Z,2.63
2022-10-19T14:57:24.762Z,2.10
2022-10-19T14:59:54.822Z,3.73
2022-10-19T15:02:27.161Z,2.73
2022-10-19T15:04:58.754Z,2.10
2022-10-19T15:07:31.439Z,2.90
2022-10-19T15:10:02.034Z,2.63
2022-10-19T15:12:31.558Z,2.60
2022-10-19T15:14:59.286Z,2.80
2022-10-19T15:17:29.524Z,2.30
2022-10-19T15:20:01.233Z,2.70
2022-10-19T15:22:39.530Z,2.77
2022-10-19T15:25:33.270Z,3.73
2022-10-19T15:28:21.991Z,3.27
2022-10-19T15:31:00.199Z,3.10
2022-10-19T15:33:27.805Z,3.10
2022-10-19T15:36:07.215Z,2.93
2022-10-19T15:38:35.659Z,3.53
2022-10-19T15:41:04.970Z,3.00
2022-10-19T15:43:44.916Z,2.80
2022-10-19T15:46:28.306Z,3.33
2022-10-19T15:48:57.490Z,3.83
2022-10-19T15:51:50.606Z,3.30
2022-10-19T15:54:19.472Z,3.60
2022-10-19T15:56:51.340Z,4.27
2022-10-19T15:59:20.847Z,4.03
2022-10-19T16:01:55.059Z,4.53
2022-10-19T16:04:23.537Z,4.73
2022-10-19T16:06:52.789Z,6.50
2022-10-19T16:09:22.480Z,8.13
2022-10-19T16:11:56.197Z,7.80
2022-10-19T16:14:23.836Z,9.60
2022-10-19T16:16:51.443Z,9.07
2022-10-19T16:19:19.004Z,8.00
2022-10-19T16:21:50.118Z,7.83
2022-10-19T16:24:19.705Z,9.27
2022-10-19T16:26:47.245Z,7.97
2022-10-19T16:29:14.915Z,7.30
2022-10-19T16:31:42.518Z,7.70
2022-10-19T16:34:10.147Z,10.20
2022-10-19T16:36:37.741Z,7.57
2022-10-19T16:39:05.361Z,9.17
2022-10-19T16:41:34.358Z,8.27
2022-10-19T16:44:01.936Z,8.50
2022-10-19T16:46:29.710Z,7.23
2022-10-19T16:48:57.314Z,6.90
2022-10-19T16:51:32.382Z,7.60
2022-10-19T16:53:59.967Z,7.60
2022-10-19T16:56:30.212Z,6.67
2022-10-19T16:59:01.763Z,7.00
2022-10-19T17:01:30.458Z,7.73
2022-10-19T17:03:58.799Z,9.67
2022-10-19T17:06:28.209Z,8.50
2022-10-19T17:11:45.026Z,8.67
2022-10-19T17:14:14.027Z,8.63
2022-10-19T17:16:42.001Z,8.47
2022-10-19T17:19:11.451Z,8.40
2022-10-19T17:21:42.014Z,7.40
2022-10-19T17:24:20.133Z,8.10
2022-10-19T17:26:50.668Z,8.43
2022-10-19T17:29:20.285Z,7.17
2022-10-19T17:31:48.374Z,6.63
2022-10-19T17:34:16.701Z,7.20
2022-10-19T17:36:45.756Z,7.10
2022-10-19T17:39:15.182Z,6.90
2022-10-19T17:41:43.062Z,8.13
2022-10-19T17:44:10.641Z,7.03
2022-10-19T17:46:39.573Z,7.20
2022-10-19T17:49:07.195Z,7.50
2022-10-19T17:51:36.511Z,7.47
2022-10-19T17:54:07.530Z,6.30
2022-10-19T17:56:35.605Z,6.97
2022-10-19T17:59:03.412Z,9.03
2022-10-19T18:01:31.662Z,7.90
2022-10-19T18:04:00.602Z,8.77
2022-10-19T18:06:29.535Z,9.60
2022-10-19T18:08:58.409Z,9.80
2022-10-19T18:11:27.986Z,10.90
2022-10-19T18:13:57.334Z,11.27
2022-10-19T18:16:26.845Z,12.43
2022-10-19T18:18:56.460Z,10.90
2022-10-19T18:21:27.688Z,10.40
2022-10-19T18:23:57.771Z,10.90
2022-10-19T18:26:28.006Z,12.60
2022-10-19T18:28:56.424Z,11.87
2022-10-19T18:31:28.567Z,14.10
2022-10-19T18:33:57.571Z,11.30
2022-10-19T18:36:26.600Z,10.50
2022-10-19T18:38:57.149Z,9.63
2022-10-19T18:41:24.794Z,9.33
2022-10-19T18:43:53.670Z,9.80
2022-10-19T18:46:23.207Z,9.80
2022-10-19T18:48:50.853Z,11.20
2022-10-19T18:51:19.893Z,10.97
2022-10-19T18:53:48.880Z,14.33
2022-10-19T18:56:18.567Z,15.40
2022-10-19T18:58:46.404Z,16.37
2022-10-19T19:01:15.724Z,16.17
2022-10-19T19:03:44.789Z,14.83
2022-10-19T19:06:14.290Z,14.10
2022-10-19T19:11:12.928Z,15.43
2022-10-19T19:13:41.565Z,14.60
2022-10-19T19:16:09.861Z,13.70
2022-10-19T19:18:37.701Z,17.10
2022-10-19T19:21:06.256Z,13.60
2022-10-19T19:23:34.294Z,12.73
2022-10-19T19:26:04.058Z,13.87
2022-10-19T19:28:35.442Z,13.00
2022-10-19T19:31:06.846Z,13.87
2022-10-19T19:33:34.726Z,13.83
2022-10-19T19:36:06.136Z,14.10
2022-10-19T19:38:34.435Z,14.80
2022-10-19T19:41:04.910Z,15.10
2022-10-19T19:43:35.825Z,15.97
2022-10-19T19:46:08.874Z,16.10
2022-10-19T19:48:37.036Z,20.50
2022-10-19T19:51:04.919Z,24.63
2022-10-19T19:53:32.447Z,22.07
2022-10-19T19:55:59.998Z,19.37
2022-10-19T19:58:27.516Z,17.83
2022-10-19T20:00:56.413Z,19.93
2022-10-19T20:03:23.938Z,23.23
2022-10-19T20:05:51.514Z,22.60
2022-10-19T20:08:19.146Z,18.37
2022-10-19T20:10:46.678Z,17.20
2022-10-19T20:13:14.231Z,15.67
2022-10-19T20:15:41.754Z,15.20
2022-10-19T20:18:10.645Z,15.10
2022-10-19T20:20:38.241Z,15.40
2022-10-19T20:23:05.798Z,14.23
2022-10-19T20:25:37.322Z,15.40
2022-10-19T20:28:05.549Z,15.33
2022-10-19T20:30:33.191Z,16.13
2022-10-19T20:33:00.848Z,16.13
2022-10-19T20:35:29.717Z,16.00
2022-10-19T20:37:58.483Z,16.97
2022-10-19T20:40:26.013Z,17.23
2022-10-19T20:42:53.607Z,16.27
2022-10-19T20:45:21.140Z,16.80
2022-10-19T20:47:48.650Z,15.90
2022-10-19T20:50:19.267Z,17.27
2022-10-19T20:52:50.700Z,16.60
2022-10-19T20:55:20.244Z,16.20
2022-10-19T20:57:47.805Z,17.67
2022-10-19T21:00:16.301Z,16.60
2022-10-19T21:02:44.941Z,17.93
2022-10-19T21:05:13.128Z,18.00
2022-10-19T21:07:40.650Z,18.03
2022-10-19T21:10:10.236Z,19.57
2022-10-19T21:12:38.117Z,18.80
2022-10-19T21:15:06.242Z,19.30
2022-10-19T21:17:33.769Z,19.87
2022-10-19T21:20:01.354Z,20.40
2022-10-19T21:22:28.950Z,19.97
2022-10-19T21:24:56.484Z,20.97
2022-10-19T21:27:25.339Z,20.20
2022-10-19T21:29:52.866Z,20.00
2022-10-19T21:32:20.941Z,20.70
2022-10-19T21:34:48.457Z,19.87
2022-10-19T21:37:15.988Z,20.00
2022-10-19T21:39:43.522Z,20.40
2022-10-19T21:42:11.049Z,20.77
2022-10-19T21:44:39.929Z,19.63
2022-10-19T21:47:07.884Z,20.17
2022-10-19T21:49:35.410Z,18.83
2022-10-19T21:52:02.965Z,20.17
2022-10-19T21:54:30.482Z,18.17
2022-10-19T21:57:01.268Z,19.27
2022-10-19T21:59:29.130Z,18.00
2022-10-19T22:01:58.257Z,18.97
2022-10-19T22:04:25.803Z,19.00
2022-10-19T22:06:53.641Z,19.33
2022-10-19T22:09:24.039Z,17.93
2022-10-19T22:11:51.851Z,17.97
2022-10-19T22:14:19.412Z,17.43
2022-10-19T22:16:47.022Z,18.10
2022-10-19T22:19:15.964Z,19.10
2022-10-19T22:21:43.529Z,20.70
2022-10-19T22:24:13.854Z,19.87
2022-10-19T22:26:44.718Z,20.40
2022-10-19T22:29:12.827Z,20.87
2022-10-19T22:31:40.522Z,20.60
2022-10-19T22:34:10.357Z,21.40
2022-10-19T22:36:39.301Z,22.40
2022-10-19T22:39:07.797Z,21.07
2022-10-19T22:41:35.444Z,22.53
2022-10-19T22:44:03.142Z,22.40
2022-10-19T22:46:30.713Z,23.00
2022-10-19T22:48:58.636Z,23.93
2022-10-19T22:51:26.347Z,24.23
2022-10-19T22:53:55.333Z,25.20
2022-10-19T22:56:22.846Z,26.20
2022-10-19T22:58:50.409Z,26.03
2022-10-19T23:01:18.113Z,27.50
2022-10-19T23:03:45.786Z,27.10
2022-10-19T23:06:15.419Z,27.63
2022-10-19T23:08:43.424Z,26.90
2022-10-19T23:11:12.743Z,29.13
2022-10-19T23:13:40.658Z,29.70
2022-10-19T23:16:09.425Z,30.73
2022-10-19T23:18:39.789Z,30.17
2022-10-19T23:21:09.313Z,30.90
2022-10-19T23:23:37.046Z,30.60
2022-10-19T23:26:07.834Z,30.60
2022-10-19T23:28:38.040Z,31.23
2022-10-19T23:31:07.953Z,32.03
2022-10-19T23:33:36.170Z,31.23
2022-10-19T23:36:06.391Z,31.73
2022-10-19T23:38:34.109Z,32.13
2022-10-19T23:41:01.639Z,30.80
2022-10-19T23:43:29.239Z,31.30
2022-10-19T23:45:58.149Z,32.60
2022-10-19T23:48:26.081Z,29.60
2022-10-19T23:50:58.977Z,31.07
2022-10-19T23:53:27.708Z,31.60
2022-10-19T23:55:59.486Z,30.60
2022-10-19T23:58:27.549Z,30.10
